sensor_id;sensor_type;location;lat;lon;timestamp;pressure;altitude;pressure_sealevel;temperature;humidity
75938;BME280;64615;32.062;34.834;2023-05-07T11:11:44;100878.06;;;25.10;51.66
75938;BME280;64615;32.062;34.834;2023-05-07T11:17:33;100881.63;;;25.10;51.55
75938;BME280;64615;32.062;34.834;2023-05-07T11:20:46;100884.88;;;25.12;51.46
75938;BME280;64615;32.062;34.834;2023-05-07T11:26:30;100875.91;;;25.17;51.47
75938;BME280;64615;32.062;34.834;2023-05-07T11:29:21;100874.53;;;25.14;51.52
75938;BME280;64615;32.062;34.834;2023-05-07T11:32:12;100874.78;;;25.13;51.53
75938;BME280;64615;32.062;34.834;2023-05-07T11:35:03;100866.63;;;25.13;52.05
75938;BME280;64615;32.062;34.834;2023-05-07T11:37:59;100879.97;;;25.14;51.73
75938;BME280;64615;32.062;34.834;2023-05-07T11:40:54;100873.44;;;25.15;51.98
75938;BME280;64615;32.062;34.834;2023-05-07T11:43:58;100870.16;;;25.18;51.60
75938;BME280;64615;32.062;34.834;2023-05-07T11:46:49;100866.09;;;25.16;51.77
75938;BME280;64615;32.062;34.834;2023-05-07T11:49:41;100868.25;;;25.19;52.03
75938;BME280;64615;32.062;34.834;2023-05-07T11:52:32;100870.72;;;25.20;51.52
75938;BME280;64615;32.062;34.834;2023-05-07T11:55:24;100865.28;;;25.20;51.92
75938;BME280;64615;32.062;34.834;2023-05-07T11:58:21;100859.56;;;25.17;51.62
75938;BME280;64615;32.062;34.834;2023-05-07T12:01:13;100853.00;;;25.18;51.69
75938;BME280;64615;32.062;34.834;2023-05-07T12:04:03;100853.28;;;25.16;51.76
75938;BME280;64615;32.062;34.834;2023-05-07T12:06:54;100864.72;;;25.18;52.29
75938;BME280;64615;32.062;34.834;2023-05-07T12:09:46;100844.56;;;25.19;52.15
75938;BME280;64615;32.062;34.834;2023-05-07T12:12:46;100849.75;;;25.16;51.61
75938;BME280;64615;32.062;34.834;2023-05-07T19:22:59;100951.59;;;25.00;59.57
75938;BME280;64615;32.062;34.834;2023-05-07T19:25:24;100952.69;;;25.04;59.65
75938;BME280;64615;32.062;34.834;2023-05-07T19:27:50;100951.31;;;24.96;59.47
75938;BME280;64615;32.062;34.834;2023-05-07T19:30:15;100958.97;;;25.04;58.97
75938;BME280;64615;32.062;34.834;2023-05-07T19:32:41;100945.59;;;25.08;58.42
75938;BME280;64615;32.062;34.834;2023-05-07T20:02:22;100961.13;;;25.02;57.94
75938;BME280;64615;32.062;34.834;2023-05-07T20:04:47;100959.22;;;25.03;57.83
75938;BME280;64615;32.062;34.834;2023-05-07T20:07:13;100957.31;;;25.03;57.44
75938;BME280;64615;32.062;34.834;2023-05-07T20:09:39;100954.59;;;25.03;57.66
75938;BME280;64615;32.062;34.834;2023-05-07T20:12:04;100953.25;;;25.01;57.26
75938;BME280;64615;32.062;34.834;2023-05-07T20:14:30;100949.94;;;24.99;57.35
75938;BME280;64615;32.062;34.834;2023-05-07T20:16:56;100955.41;;;24.99;56.97
75938;BME280;64615;32.062;34.834;2023-05-07T20:19:22;100949.13;;;24.98;57.24
75938;BME280;64615;32.062;34.834;2023-05-07T20:21:48;100949.13;;;24.98;57.15
75938;BME280;64615;32.062;34.834;2023-05-07T20:24:13;100951.31;;;24.96;56.73
75938;BME280;64615;32.062;34.834;2023-05-07T20:26:39;100945.59;;;24.98;56.74
75938;BME280;64615;32.062;34.834;2023-05-07T20:29:05;100956.78;;;25.01;56.47
75938;BME280;64615;32.062;34.834;2023-05-07T20:31:31;100948.31;;;25.03;56.16
75938;BME280;64615;32.062;34.834;2023-05-07T20:33:59;100953.25;;;25.01;56.54
75938;BME280;64615;32.062;34.834;2023-05-07T20:36:25;100955.41;;;24.99;56.62
